sensor_id;sensor_type;location;lat;lon;timestamp;pressure;altitude;pressure_sealevel;temperature;humidity
15884;BME280;8040;50.254;10.960;2023-07-31T00:00:51;98120.28;;;17.14;71.99
15884;BME280;8040;50.254;10.960;2023-07-31T00:03:16;98109.31;;;17.14;72.64
15884;BME280;8040;50.254;10.960;2023-07-31T00:05:42;98111.28;;;17.14;72.89
15884;BME280;8040;50.254;10.960;2023-07-31T00:08:07;98112.06;;;17.14;73.62
15884;BME280;8040;50.254;10.960;2023-07-31T00:10:32;98110.13;;;17.15;73.92
15884;BME280;8040;50.254;10.960;2023-07-31T00:12:58;98111.63;;;17.12;74.97
15884;BME280;8040;50.254;10.960;2023-07-31T00:15:24;98100.66;;;17.12;75.63
15884;BME280;8040;50.254;10.960;2023-07-31T00:17:49;98102.25;;;17.13;76.37
15884;BME280;8040;50.254;10.960;2023-07-31T00:20:14;98106.94;;;17.13;77.14
15884;BME280;8040;50.254;10.960;2023-07-31T00:22:40;98106.84;;;17.09;77.31
15884;BME280;8040;50.254;10.960;2023-07-31T00:25:05;98108.75;;;17.09;77.96
15884;BME280;8040;50.254;10.960;2023-07-31T00:27:31;98105.09;;;17.05;78.02
15884;BME280;8040;50.254;10.960;2023-07-31T00:29:57;98103.50;;;17.04;78.46
15884;BME280;8040;50.254;10.960;2023-07-31T00:32:22;98104.22;;;17.01;78.56
15884;BME280;8040;50.254;10.960;2023-07-31T00:34:47;98103.84;;;17.02;80.33
15884;BME280;8040;50.254;10.960;2023-07-31T00:37:13;98099.19;;;17.03;81.21
15884;BME280;8040;50.254;10.960;2023-07-31T00:39:38;98103.41;;;17.00;82.21
15884;BME280;8040;50.254;10.960;2023-07-31T00:42:03;98098.63;;;16.97;83.23
15884;BME280;8040;50.254;10.960;2023-07-31T00:44:29;98085.94;;;16.93;82.83
15884;BME280;8040;50.254;10.960;2023-07-31T00:46:54;98090.97;;;16.91;83.31
15884;BME280;8040;50.254;10.960;2023-07-31T00:49:21;98090.53;;;16.89;84.01
15884;BME280;8040;50.254;10.960;2023-07-31T00:51:47;98090.06;;;16.87;84.76
15884;BME280;8040;50.254;10.960;2023-07-31T00:54:12;98081.84;;;16.87;86.07
15884;BME280;8040;50.254;10.960;2023-07-31T00:56:37;98075.56;;;16.86;86.63
15884;BME280;8040;50.254;10.960;2023-07-31T00:59:03;98076.25;;;16.83;87.23
15884;BME280;8040;50.254;10.960;2023-07-31T01:01:28;98069.50;;;16.81;87.54
15884;BME280;8040;50.254;10.960;2023-07-31T01:03:54;98074.22;;;16.80;88.45
15884;BME280;8040;50.254;10.960;2023-07-31T01:06:36;98076.50;;;16.78;88.34
15884;BME280;8040;50.254;10.960;2023-07-31T01:09:03;98064.41;;;16.79;89.22
15884;BME280;8040;50.254;10.960;2023-07-31T01:11:49;98062.81;;;16.78;89.54
15884;BME280;8040;50.254;10.960;2023-07-31T01:14:16;98047.47;;;16.77;89.58
15884;BME280;8040;50.254;10.960;2023-07-31T01:16:41;98059.59;;;16.76;89.46
15884;BME280;8040;50.254;10.960;2023-07-31T01:19:08;98052.06;;;16.73;89.14
15884;BME280;8040;50.254;10.960;2023-07-31T01:26:44;98056.28;;;16.71;90.98
15884;BME280;8040;50.254;10.960;2023-07-31T01:31:55;98049.66;;;16.72;91.77
15884;BME280;8040;50.254;10.960;2023-07-31T01:34:21;98045.00;;;16.72;91.98
15884;BME280;8040;50.254;10.960;2023-07-31T01:36:47;98053.91;;;16.69;92.59
15884;BME280;8040;50.254;10.960;2023-07-31T01:39:13;98051.59;;;16.71;93.04
15884;BME280;8040;50.254;10.960;2023-07-31T01:41:38;98047.75;;;16.72;93.63
15884;BME280;8040;50.254;10.960;2023-07-31T01:44:04;98043.38;;;16.71;94.17
15884;BME280;8040;50.254;10.960;2023-07-31T01:46:29;98046.13;;;16.71;93.97
15884;BME280;8040;50.254;10.960;2023-07-31T01:48:54;98042.00;;;16.65;93.49
15884;BME280;8040;50.254;10.960;2023-07-31T01:51:20;98042.72;;;16.62;93.78
15884;BME280;8040;50.254;10.960;2023-07-31T01:53:45;98040.31;;;16.61;94.98
15884;BME280;8040;50.254;10.960;2023-07-31T01:56:10;98039.16;;;16.62;95.62
15884;BME280;8040;50.254;10.960;2023-07-31T01:58:35;98032.09;;;16.61;96.02
15884;BME280;8040;50.254;10.960;2023-07-31T02:01:01;98041.69;;;16.55;96.06
15884;BME280;8040;50.254;10.960;2023-07-31T02:03:26;98022.84;;;16.53;96.16
15884;BME280;8040;50.254;10.960;2023-07-31T02:05:51;98022.28;;;16.48;96.36
15884;BME280;8040;50.254;10.960;2023-07-31T02:08:19;98018.63;;;16.44;96.25
15884;BME280;8040;50.254;10.960;2023-07-31T02:10:44;98017.84;;;16.43;96.22
15884;BME280;8040;50.254;10.960;2023-07-31T02:13:09;98010.31;;;16.40;96.17
15884;BME280;8040;50.254;10.960;2023-07-31T02:15:34;98005.97;;;16.39;96.82
15884;BME280;8040;50.254;10.960;2023-07-31T02:18:00;97992.16;;;16.24;96.14
15884;BME280;8040;50.254;10.960;2023-07-31T02:20:25;98001.41;;;16.19;96.23
15884;BME280;8040;50.254;10.960;2023-07-31T02:22:51;97995.69;;;16.13;97.53
15884;BME280;8040;50.254;10.960;2023-07-31T02:25:16;97998.22;;;16.17;98.39
15884;BME280;8040;50.254;10.960;2023-07-31T02:27:42;97997.28;;;16.25;98.52
15884;BME280;8040;50.254;10.960;2023-07-31T02:30:07;98000.81;;;16.26;99.60
15884;BME280;8040;50.254;10.960;2023-07-31T02:32:32;97996.16;;;16.26;100.00
15884;BME280;8040;50.254;10.960;2023-07-31T02:34:58;97995.13;;;16.31;100.00
15884;BME280;8040;50.254;10.960;2023-07-31T02:37:23;97992.50;;;16.34;100.00
15884;BME280;8040;50.254;10.960;2023-07-31T02:39:49;98001.19;;;16.36;100.00
15884;BME280;8040;50.254;10.960;2023-07-31T02:42:14;97992.63;;;16.38;100.00
15884;BME280;8040;50.254;10.960;2023-07-31T02:44:39;97992.28;;;16.39;100.00
15884;BME280;8040;50.254;10.960;2023-07-31T02:47:05;97992.75;;;16.41;100.00
15884;BME280;8040;50.254;10.960;2023-07-31T02:49:30;97996.28;;;16.42;100.00
15884;BME280;8040;50.254;10.960;2023-07-31T02:51:55;97986.59;;;16.44;100.00
15884;BME280;8040;50.254;10.960;2023-07-31T02:54:21;97991.72;;;16.46;100.00
15884;BME280;8040;50.254;10.960;2023-07-31T02:56:47;97991.38;;;16.47;100.00
15884;BME280;8040;50.254;10.960;2023-07-31T02:59:12;97991.84;;;16.49;100.00
15884;BME280;8040;50.254;10.960;2023-07-31T03:01:37;97983.28;;;16.51;100.00
15884;BME280;8040;50.254;10.960;2023-07-31T03:04:03;97987.63;;;16.52;100.00
15884;BME280;8040;50.254;10.960;2023-07-31T03:06:28;97987.63;;;16.52;100.00
15884;BME280;8040;50.254;10.960;2023-07-31T03:08:54;97986.81;;;16.51;100.00
15884;BME280;8040;50.254;10.960;2023-07-31T03:11:19;97982.94;;;16.52;100.00
15884;BME280;8040;50.254;10.960;2023-07-31T03:13:44;97981.34;;;16.51;100.00
15884;BME280;8040;50.254;10.960;2023-07-31T03:16:09;97975.84;;;16.51;100.00
15884;BME280;8040;50.254;10.960;2023-07-31T03:18:35;97979.84;;;16.54;100.00
15884;BME280;8040;50.254;10.960;2023-07-31T03:21:00;97976.31;;;16.53;100.00
15884;BME280;8040;50.254;10.960;2023-07-31T03:23:26;97972.44;;;16.54;100.00
15884;BME280;8040;50.254;10.960;2023-07-31T03:26:02;97980.66;;;16.54;100.00
15884;BME280;8040;50.254;10.960;2023-07-31T03:28:28;97976.78;;;16.55;100.00
15884;BME280;8040;50.254;10.960;2023-07-31T03:30:54;97976.78;;;16.55;100.00
15884;BME280;8040;50.254;10.960;2023-07-31T03:33:19;97978.03;;;16.58;100.00
15884;BME280;8040;50.254;10.960;2023-07-31T03:35:45;97978.03;;;16.58;100.00
15884;BME280;8040;50.254;10.960;2023-07-31T03:38:10;97979.97;;;16.57;100.00
15884;BME280;8040;50.254;10.960;2023-07-31T03:40:35;97983.50;;;16.58;100.00
15884;BME280;8040;50.254;10.960;2023-07-31T03:43:01;97981.56;;;16.58;100.00
15884;BME280;8040;50.254;10.960;2023-07-31T03:45:26;97983.63;;;16.61;100.00
15884;BME280;8040;50.254;10.960;2023-07-31T03:47:51;97978.91;;;16.62;100.00
15884;BME280;8040;50.254;10.960;2023-07-31T03:50:17;97976.53;;;16.60;100.00
15884;BME280;8040;50.254;10.960;2023-07-31T03:52:42;97971.06;;;16.60;100.00
15884;BME280;8040;50.254;10.960;2023-07-31T03:55:07;97969.94;;;16.61;100.00
15884;BME280;8040;50.254;10.960;2023-07-31T03:57:33;97970.38;;;16.63;100.00
15884;BME280;8040;50.254;10.960;2023-07-31T03:59:58;97974.25;;;16.62;100.00
15884;BME280;8040;50.254;10.960;2023-07-31T04:02:24;97968.88;;;16.66;100.00
15884;BME280;8040;50.254;10.960;2023-07-31T04:04:49;97964.22;;;16.66;100.00
15884;BME280;8040;50.254;10.960;2023-07-31T04:07:14;97952.44;;;16.66;100.00
15884;BME280;8040;50.254;10.960;2023-07-31T04:09:40;97956.00;;;16.66;100.00
15884;BME280;8040;50.254;10.960;2023-07-31T04:12:05;97959.19;;;16.68;100.00
15884;BME280;8040;50.254;10.960;2023-07-31T04:14:30;97960.78;;;16.69;100.00
15884;BME280;8040;50.254;10.960;2023-07-31T04:16:56;97956.88;;;16.70;100.00
15884;BME280;8040;50.254;10.960;2023-07-31T04:19:21;97956.88;;;16.70;100.00
15884;BME280;8040;50.254;10.960;2023-07-31T04:21:46;97957.22;;;16.69;100.00
15884;BME280;8040;50.254;10.960;2023-07-31T04:24:12;97952.88;;;16.68;100.00
15884;BME280;8040;50.254;10.960;2023-07-31T04:26:37;97962.38;;;16.70;100.00
15884;BME280;8040;50.254;10.960;2023-07-31T04:29:02;97955.72;;;16.71;99.82
15884;BME280;8040;50.254;10.960;2023-07-31T04:31:28;97964.88;;;16.75;99.18
15884;BME280;8040;50.254;10.960;2023-07-31T04:33:53;97965.78;;;16.79;99.52
15884;BME280;8040;50.254;10.960;2023-07-31T04:36:18;97960.75;;;16.81;99.38
15884;BME280;8040;50.254;10.960;2023-07-31T04:38:43;97961.19;;;16.83;98.76
15884;BME280;8040;50.254;10.960;2023-07-31T04:41:09;97957.31;;;16.84;98.90
15884;BME280;8040;50.254;10.960;2023-07-31T04:43:34;97965.97;;;16.86;98.86
15884;BME280;8040;50.254;10.960;2023-07-31T04:45:59;97957.44;;;16.88;98.98
15884;BME280;8040;50.254;10.960;2023-07-31T04:48:25;97957.88;;;16.90;98.99
15884;BME280;8040;50.254;10.960;2023-07-31T04:50:50;97962.63;;;16.93;98.57
15884;BME280;8040;50.254;10.960;2023-07-31T04:53:15;97967.78;;;16.94;97.75
15884;BME280;8040;50.254;10.960;2023-07-31T04:55:41;97962.41;;;16.98;96.73
15884;BME280;8040;50.254;10.960;2023-07-31T04:58:06;97951.09;;;16.99;96.59
15884;BME280;8040;50.254;10.960;2023-07-31T05:00:31;97956.34;;;17.04;96.21
15884;BME280;8040;50.254;10.960;2023-07-31T05:02:57;97953.34;;;17.09;96.14
15884;BME280;8040;50.254;10.960;2023-07-31T05:05:22;97949.56;;;17.14;95.50
15884;BME280;8040;50.254;10.960;2023-07-31T05:07:47;97952.75;;;17.16;94.38
15884;BME280;8040;50.254;10.960;2023-07-31T05:10:13;97960.63;;;17.17;93.57
15884;BME280;8040;50.254;10.960;2023-07-31T05:12:38;97952.84;;;17.19;92.73
15884;BME280;8040;50.254;10.960;2023-07-31T05:15:03;97952.16;;;17.22;92.22
15884;BME280;8040;50.254;10.960;2023-07-31T05:17:30;97952.59;;;17.24;90.93
15884;BME280;8040;50.254;10.960;2023-07-31T05:19:55;97948.03;;;17.28;90.54
15884;BME280;8040;50.254;10.960;2023-07-31T05:22:21;97943.78;;;17.31;89.79
15884;BME280;8040;50.254;10.960;2023-07-31T05:24:46;97939.53;;;17.33;89.06
15884;BME280;8040;50.254;10.960;2023-07-31T05:27:11;97943.50;;;17.36;88.47
15884;BME280;8040;50.254;10.960;2023-07-31T05:29:37;97944.44;;;17.40;88.20
15884;BME280;8040;50.254;10.960;2023-07-31T05:32:03;97948.09;;;17.44;87.71
15884;BME280;8040;50.254;10.960;2023-07-31T05:34:28;97943.84;;;17.46;86.88
15884;BME280;8040;50.254;10.960;2023-07-31T05:36:54;97946.34;;;17.51;85.99
15884;BME280;8040;50.254;10.960;2023-07-31T05:39:19;97964.00;;;17.54;84.55
15884;BME280;8040;50.254;10.960;2023-07-31T05:41:45;97953.03;;;17.54;83.29
15884;BME280;8040;50.254;10.960;2023-07-31T05:44:10;97965.72;;;17.58;83.81
15884;BME280;8040;50.254;10.960;2023-07-31T05:46:35;97964.56;;;17.59;83.45
15884;BME280;8040;50.254;10.960;2023-07-31T05:49:01;97968.91;;;17.60;83.46
15884;BME280;8040;50.254;10.960;2023-07-31T05:51:26;97968.19;;;17.63;82.87
15884;BME280;8040;50.254;10.960;2023-07-31T05:53:52;97967.50;;;17.66;82.40
15884;BME280;8040;50.254;10.960;2023-07-31T05:56:18;97965.19;;;17.68;82.77
15884;BME280;8040;50.254;10.960;2023-07-31T05:58:43;97958.75;;;17.76;82.60
15884;BME280;8040;50.254;10.960;2023-07-31T06:01:12;97957.34;;;17.82;82.55
15884;BME280;8040;50.254;10.960;2023-07-31T06:03:37;97953.19;;;17.88;81.23
15884;BME280;8040;50.254;10.960;2023-07-31T06:06:03;97951.31;;;17.92;80.57
15884;BME280;8040;50.254;10.960;2023-07-31T06:08:28;97958.13;;;17.98;79.70
15884;BME280;8040;50.254;10.960;2023-07-31T06:10:54;97952.81;;;18.05;79.12
15884;BME280;8040;50.254;10.960;2023-07-31T06:13:19;97963.28;;;18.15;78.62
15884;BME280;8040;50.254;10.960;2023-07-31T06:15:45;97954.50;;;18.25;78.66
15884;BME280;8040;50.254;10.960;2023-07-31T06:18:10;97959.84;;;18.34;77.71
15884;BME280;8040;50.254;10.960;2023-07-31T06:20:35;97951.31;;;18.39;75.42
15884;BME280;8040;50.254;10.960;2023-07-31T06:25:45;97951.84;;;18.44;74.27
15884;BME280;8040;50.254;10.960;2023-07-31T06:28:10;97951.03;;;18.44;73.05
15884;BME280;8040;50.254;10.960;2023-07-31T06:30:36;97946.69;;;18.43;72.86
15884;BME280;8040;50.254;10.960;2023-07-31T06:33:03;97946.28;;;18.41;71.61
15884;BME280;8040;50.254;10.960;2023-07-31T06:35:28;97952.19;;;18.43;71.41
15884;BME280;8040;50.254;10.960;2023-07-31T06:37:53;97953.88;;;18.47;71.30
15884;BME280;8040;50.254;10.960;2023-07-31T06:40:19;97954.75;;;18.51;71.54
15884;BME280;8040;50.254;10.960;2023-07-31T06:42:47;97959.50;;;18.54;71.29
15884;BME280;8040;50.254;10.960;2023-07-31T06:45:18;97951.34;;;18.58;71.50
15884;BME280;8040;50.254;10.960;2023-07-31T06:47:43;97955.63;;;18.55;70.64
15884;BME280;8040;50.254;10.960;2023-07-31T06:50:08;97950.31;;;18.62;70.37
15884;BME280;8040;50.254;10.960;2023-07-31T06:52:34;97948.06;;;18.68;70.20
15884;BME280;8040;50.254;10.960;2023-07-31T06:57:54;97951.69;;;18.72;68.78
15884;BME280;8040;50.254;10.960;2023-07-31T07:00:20;97961.59;;;18.76;69.03
15884;BME280;8040;50.254;10.960;2023-07-31T07:02:46;97961.25;;;18.78;69.32
15884;BME280;8040;50.254;10.960;2023-07-31T07:05:14;97960.91;;;18.79;69.65
15884;BME280;8040;50.254;10.960;2023-07-31T07:07:40;97958.16;;;18.79;69.00
15884;BME280;8040;50.254;10.960;2023-07-31T07:10:05;97957.69;;;18.77;68.88
15884;BME280;8040;50.254;10.960;2023-07-31T07:12:31;97962.84;;;18.79;68.95
15884;BME280;8040;50.254;10.960;2023-07-31T07:14:57;97960.44;;;18.77;69.03
15884;BME280;8040;50.254;10.960;2023-07-31T07:17:25;97960.78;;;18.76;68.39
15884;BME280;8040;50.254;10.960;2023-07-31T07:19:51;97966.47;;;18.83;68.13
15884;BME280;8040;50.254;10.960;2023-07-31T07:22:17;97975.13;;;18.85;68.36
15884;BME280;8040;50.254;10.960;2023-07-31T07:24:42;97973.69;;;18.91;69.17
15884;BME280;8040;50.254;10.960;2023-07-31T07:27:09;97972.19;;;18.93;69.06
15884;BME280;8040;50.254;10.960;2023-07-31T07:29:34;97977.69;;;18.93;68.99
15884;BME280;8040;50.254;10.960;2023-07-31T07:32:00;97969.09;;;18.95;69.32
15884;BME280;8040;50.254;10.960;2023-07-31T07:34:26;97964.38;;;18.95;69.37
15884;BME280;8040;50.254;10.960;2023-07-31T07:36:51;97967.13;;;18.95;69.18
15884;BME280;8040;50.254;10.960;2023-07-31T07:39:16;97965.53;;;18.94;69.09
15884;BME280;8040;50.254;10.960;2023-07-31T07:41:42;97966.69;;;18.93;68.93
15884;BME280;8040;50.254;10.960;2023-07-31T07:44:08;97964.38;;;18.95;69.13
15884;BME280;8040;50.254;10.960;2023-07-31T07:46:34;97966.84;;;19.00;69.52
15884;BME280;8040;50.254;10.960;2023-07-31T07:49:00;97966.56;;;19.05;69.29
15884;BME280;8040;50.254;10.960;2023-07-31T07:51:26;97959.09;;;19.06;68.15
15884;BME280;8040;50.254;10.960;2023-07-31T07:53:51;97963.81;;;19.05;67.69
15884;BME280;8040;50.254;10.960;2023-07-31T07:56:16;97946.00;;;18.99;67.84
15884;BME280;8040;50.254;10.960;2023-07-31T07:58:47;97945.13;;;19.14;68.18
15884;BME280;8040;50.254;10.960;2023-07-31T08:01:16;97944.59;;;19.24;68.42
15884;BME280;8040;50.254;10.960;2023-07-31T08:04:02;97937.81;;;19.41;67.61
15884;BME280;8040;50.254;10.960;2023-07-31T08:06:28;97944.47;;;19.59;66.38
15884;BME280;8040;50.254;10.960;2023-07-31T08:08:55;97937.19;;;19.70;66.31
15884;BME280;8040;50.254;10.960;2023-07-31T08:11:20;97930.28;;;19.79;66.32
15884;BME280;8040;50.254;10.960;2023-07-31T08:13:47;97939.53;;;19.90;64.85
15884;BME280;8040;50.254;10.960;2023-07-31T08:16:12;97937.31;;;19.99;64.70
15884;BME280;8040;50.254;10.960;2023-07-31T08:18:37;97937.81;;;20.05;63.81
15884;BME280;8040;50.254;10.960;2023-07-31T08:21:03;97932.09;;;20.13;63.55
15884;BME280;8040;50.254;10.960;2023-07-31T08:23:28;97925.88;;;20.20;63.43
15884;BME280;8040;50.254;10.960;2023-07-31T08:25:54;97929.97;;;20.29;61.94
15884;BME280;8040;50.254;10.960;2023-07-31T08:28:19;97930.09;;;20.36;61.96
15884;BME280;8040;50.254;10.960;2023-07-31T08:30:47;97931.75;;;20.41;60.89
15884;BME280;8040;50.254;10.960;2023-07-31T08:33:16;97937.31;;;20.44;60.86
15884;BME280;8040;50.254;10.960;2023-07-31T08:35:41;97931.78;;;20.44;60.56
15884;BME280;8040;50.254;10.960;2023-07-31T08:38:06;97932.22;;;20.46;60.31
15884;BME280;8040;50.254;10.960;2023-07-31T08:40:31;97925.53;;;20.47;61.11
15884;BME280;8040;50.254;10.960;2023-07-31T08:42:59;97919.38;;;20.57;61.31
15884;BME280;8040;50.254;10.960;2023-07-31T08:45:28;97916.78;;;20.68;59.75
15884;BME280;8040;50.254;10.960;2023-07-31T08:47:53;97927.53;;;20.76;59.64
15884;BME280;8040;50.254;10.960;2023-07-31T08:50:23;97926.78;;;20.79;58.76
15884;BME280;8040;50.254;10.960;2023-07-31T08:52:50;97925.28;;;20.85;58.22
15884;BME280;8040;50.254;10.960;2023-07-31T08:55:16;97925.47;;;20.96;59.18
15884;BME280;8040;50.254;10.960;2023-07-31T08:57:42;97916.88;;;21.04;58.68
15884;BME280;8040;50.254;10.960;2023-07-31T09:00:11;97913.50;;;21.18;58.75
15884;BME280;8040;50.254;10.960;2023-07-31T09:02:46;97916.38;;;21.28;58.21
15884;BME280;8040;50.254;10.960;2023-07-31T09:05:13;97910.88;;;21.28;57.44
15884;BME280;8040;50.254;10.960;2023-07-31T09:07:39;97908.47;;;21.23;57.44
15884;BME280;8040;50.254;10.960;2023-07-31T09:10:05;97912.00;;;21.24;57.61
15884;BME280;8040;50.254;10.960;2023-07-31T09:12:33;97909.25;;;21.24;57.48
15884;BME280;8040;50.254;10.960;2023-07-31T09:14:59;97911.22;;;21.23;57.91
15884;BME280;8040;50.254;10.960;2023-07-31T09:17:35;97898.16;;;21.20;57.07
15884;BME280;8040;50.254;10.960;2023-07-31T09:22:38;97902.06;;;21.16;57.80
15884;BME280;8040;50.254;10.960;2023-07-31T09:25:25;97912.25;;;21.12;57.56
15884;BME280;8040;50.254;10.960;2023-07-31T09:30:15;97905.31;;;21.25;57.35
15884;BME280;8040;50.254;10.960;2023-07-31T09:32:42;97902.59;;;21.28;57.22
15884;BME280;8040;50.254;10.960;2023-07-31T09:40:32;97900.94;;;21.20;56.69
15884;BME280;8040;50.254;10.960;2023-07-31T09:43:02;97894.69;;;21.23;57.21
15884;BME280;8040;50.254;10.960;2023-07-31T09:49:03;97882.88;;;21.63;56.38
15884;BME280;8040;50.254;10.960;2023-07-31T09:51:30;97885.03;;;21.83;55.30
15884;BME280;8040;50.254;10.960;2023-07-31T09:53:56;97885.59;;;21.99;54.90
15884;BME280;8040;50.254;10.960;2023-07-31T09:56:21;97872.69;;;22.14;54.72
15884;BME280;8040;50.254;10.960;2023-07-31T09:58:48;97874.72;;;22.24;54.07
15884;BME280;8040;50.254;10.960;2023-07-31T10:01:14;97867.66;;;22.30;53.65
15884;BME280;8040;50.254;10.960;2023-07-31T10:03:39;97861.72;;;22.28;53.46
15884;BME280;8040;50.254;10.960;2023-07-31T10:06:05;97860.50;;;22.25;53.53
15884;BME280;8040;50.254;10.960;2023-07-31T10:08:33;97860.50;;;22.22;53.12
15884;BME280;8040;50.254;10.960;2023-07-31T10:11:01;97849.44;;;22.25;53.26
15884;BME280;8040;50.254;10.960;2023-07-31T10:13:28;97843.94;;;22.25;53.73
15884;BME280;8040;50.254;10.960;2023-07-31T10:15:54;97845.50;;;22.26;53.43
15884;BME280;8040;50.254;10.960;2023-07-31T10:18:23;97838.00;;;22.23;53.77
15884;BME280;8040;50.254;10.960;2023-07-31T10:20:49;97839.19;;;22.22;53.44
15884;BME280;8040;50.254;10.960;2023-07-31T10:23:15;97839.16;;;22.19;53.04
15884;BME280;8040;50.254;10.960;2023-07-31T10:25:41;97838.75;;;22.20;53.83
15884;BME280;8040;50.254;10.960;2023-07-31T10:28:07;97840.75;;;22.20;53.03
15884;BME280;8040;50.254;10.960;2023-07-31T10:30:33;97843.53;;;22.23;53.20
15884;BME280;8040;50.254;10.960;2023-07-31T10:33:00;97839.94;;;22.19;53.24
15884;BME280;8040;50.254;10.960;2023-07-31T10:35:25;97845.13;;;22.24;53.92
15884;BME280;8040;50.254;10.960;2023-07-31T10:37:51;97842.41;;;22.35;53.88
15884;BME280;8040;50.254;10.960;2023-07-31T10:40:26;97843.25;;;22.42;53.57
15884;BME280;8040;50.254;10.960;2023-07-31T10:42:53;97838.91;;;22.41;52.41
15884;BME280;8040;50.254;10.960;2023-07-31T10:45:41;97838.56;;;22.46;52.87
15884;BME280;8040;50.254;10.960;2023-07-31T10:48:05;97842.53;;;22.45;52.66
15884;BME280;8040;50.254;10.960;2023-07-31T10:50:32;97837.00;;;22.45;53.24
15884;BME280;8040;50.254;10.960;2023-07-31T10:52:58;97835.44;;;22.51;52.67
15884;BME280;8040;50.254;10.960;2023-07-31T10:55:27;97820.44;;;22.49;52.70
15884;BME280;8040;50.254;10.960;2023-07-31T10:57:54;97840.19;;;22.51;52.45
15884;BME280;8040;50.254;10.960;2023-07-31T11:08:15;97815.44;;;22.14;52.55
15884;BME280;8040;50.254;10.960;2023-07-31T11:10:44;97817.78;;;22.09;52.56
15884;BME280;8040;50.254;10.960;2023-07-31T11:13:10;97816.13;;;21.97;52.66
15884;BME280;8040;50.254;10.960;2023-07-31T11:15:36;97818.38;;;21.81;53.27
15884;BME280;8040;50.254;10.960;2023-07-31T11:18:01;97826.16;;;21.69;53.74
15884;BME280;8040;50.254;10.960;2023-07-31T11:20:34;97811.44;;;21.58;55.36
15884;BME280;8040;50.254;10.960;2023-07-31T11:23:04;97816.91;;;21.51;57.53
15884;BME280;8040;50.254;10.960;2023-07-31T11:25:30;97821.97;;;21.45;59.15
15884;BME280;8040;50.254;10.960;2023-07-31T11:28:05;97827.75;;;21.33;60.68
15884;BME280;8040;50.254;10.960;2023-07-31T11:30:31;97823.69;;;21.20;60.43
15884;BME280;8040;50.254;10.960;2023-07-31T11:32:56;97829.53;;;21.15;62.76
15884;BME280;8040;50.254;10.960;2023-07-31T11:35:22;97827.13;;;21.10;64.26
15884;BME280;8040;50.254;10.960;2023-07-31T11:37:47;97822.38;;;21.07;65.83
15884;BME280;8040;50.254;10.960;2023-07-31T11:40:13;97830.66;;;21.07;68.26
15884;BME280;8040;50.254;10.960;2023-07-31T11:42:39;97834.25;;;21.11;68.83
15884;BME280;8040;50.254;10.960;2023-07-31T11:45:05;97835.03;;;21.12;70.39
15884;BME280;8040;50.254;10.960;2023-07-31T11:47:34;97833.47;;;21.14;70.73
15884;BME280;8040;50.254;10.960;2023-07-31T11:50:01;97829.88;;;21.10;70.47
15884;BME280;8040;50.254;10.960;2023-07-31T11:52:30;97829.06;;;21.06;71.90
15884;BME280;8040;50.254;10.960;2023-07-31T11:54:57;97823.13;;;21.04;71.58
15884;BME280;8040;50.254;10.960;2023-07-31T11:57:22;97821.13;;;21.01;72.20
15884;BME280;8040;50.254;10.960;2023-07-31T11:59:48;97831.75;;;20.99;73.67
15884;BME280;8040;50.254;10.960;2023-07-31T12:02:14;97830.88;;;20.92;74.46
15884;BME280;8040;50.254;10.960;2023-07-31T12:04:39;97828.78;;;20.85;74.32
15884;BME280;8040;50.254;10.960;2023-07-31T12:07:05;97823.66;;;20.84;74.84
15884;BME280;8040;50.254;10.960;2023-07-31T12:09:31;97828.28;;;20.76;74.63
15884;BME280;8040;50.254;10.960;2023-07-31T12:12:02;97811.78;;;20.80;74.64
15884;BME280;8040;50.254;10.960;2023-07-31T12:14:32;97815.75;;;20.82;75.21
15884;BME280;8040;50.254;10.960;2023-07-31T12:16:59;97818.63;;;20.89;76.00
15884;BME280;8040;50.254;10.960;2023-07-31T12:19:25;97817.19;;;21.02;75.43
15884;BME280;8040;50.254;10.960;2023-07-31T12:21:53;97822.44;;;21.14;74.35
15884;BME280;8040;50.254;10.960;2023-07-31T12:24:18;97819.69;;;21.14;72.58
15884;BME280;8040;50.254;10.960;2023-07-31T12:26:45;97815.72;;;21.12;74.50
15884;BME280;8040;50.254;10.960;2023-07-31T12:29:10;97814.56;;;21.16;73.50
15884;BME280;8040;50.254;10.960;2023-07-31T12:31:36;97811.81;;;21.16;71.34
15884;BME280;8040;50.254;10.960;2023-07-31T12:34:01;97812.63;;;21.17;71.00
15884;BME280;8040;50.254;10.960;2023-07-31T12:36:27;97811.06;;;21.19;69.92
15884;BME280;8040;50.254;10.960;2023-07-31T12:38:55;97800.44;;;21.21;70.66
15884;BME280;8040;50.254;10.960;2023-07-31T12:41:23;97798.13;;;21.23;73.09
15884;BME280;8040;50.254;10.960;2023-07-31T12:43:49;97801.59;;;21.17;73.94
15884;BME280;8040;50.254;10.960;2023-07-31T12:46:14;97813.38;;;21.14;73.44
15884;BME280;8040;50.254;10.960;2023-07-31T12:48:40;97803.53;;;21.16;74.20
15884;BME280;8040;50.254;10.960;2023-07-31T12:51:08;97791.75;;;21.19;72.10
15884;BME280;8040;50.254;10.960;2023-07-31T12:53:33;97783.50;;;21.19;73.28
15884;BME280;8040;50.254;10.960;2023-07-31T12:56:01;97782.31;;;21.20;72.60
15884;BME280;8040;50.254;10.960;2023-07-31T12:58:26;97768.13;;;21.18;73.56
15884;BME280;8040;50.254;10.960;2023-07-31T13:00:51;97768.88;;;21.19;73.39
15884;BME280;8040;50.254;10.960;2023-07-31T13:03:17;97770.44;;;21.16;74.38
15884;BME280;8040;50.254;10.960;2023-07-31T13:05:42;97756.66;;;21.16;74.72
15884;BME280;8040;50.254;10.960;2023-07-31T13:08:08;97742.84;;;21.16;75.19
15884;BME280;8040;50.254;10.960;2023-07-31T13:10:33;97720.03;;;21.19;76.12
15884;BME280;8040;50.254;10.960;2023-07-31T13:12:58;97728.91;;;21.42;75.50
15884;BME280;8040;50.254;10.960;2023-07-31T13:15:24;97732.59;;;21.60;75.34
15884;BME280;8040;50.254;10.960;2023-07-31T13:17:50;97727.22;;;21.78;75.06
15884;BME280;8040;50.254;10.960;2023-07-31T13:20:16;97717.06;;;21.92;74.03
15884;BME280;8040;50.254;10.960;2023-07-31T13:22:41;97720.66;;;21.96;72.70
15884;BME280;8040;50.254;10.960;2023-07-31T13:25:07;97711.22;;;22.04;72.05
15884;BME280;8040;50.254;10.960;2023-07-31T13:27:32;97711.25;;;22.11;72.06